Yalesville, Connecticut
Current Conditions -  °F | °C
As of 2:53 PM on Sunday 25 Jan 2015 (Local Time) from KMMK Reporting Station
Clear Clear  
Wind Chill: 28°   Ceiling: Unl
Heat Index: 36°   Visibility: 10mi
Dew Point: 14°   Wind: 12mph
Humidity: 41%   Direction: 290°WNW
Pressure: 29.78"   Gusts: 21mph
Location:  41.4596°N, 72.818°W
Report Text: KMMK 251953Z AUTO 29010G18KT 10SM CLR 02/M10 A2978 RMK AO2 SLP085 T00221100 TSNO
Loading
Personal Weather Stations






























Interactive Weather Map New forecast layout! Learn more

10-Day Weather Forecast

Advertisements
Track Severe Weather on mobile